Time;durP1;ratioP1;P1;durP2;ratioP2;P2;SDS_P1;SDS_P2;PMS_P1;PMS_P2;Temp;Humidity;BMP_temperature;BMP_pressure;BME280_temperature;BME280_humidity;BME280_pressure;Samples;Min_cycle;Max_cycle;Signal;HPM_P1;HPM_P2
2023/01/30 00:04:50;;;;;;;38.33;21.73;;;;;;;5.35;100.00;101228.63;10478877;28;20116;-75
2023/01/30 00:09:51;;;;;;;39.13;23.10;;;;;;;5.36;100.00;101200.28;10475675;28;20048;-75
2023/01/30 00:14:51;;;;;;;35.75;21.38;;;;;;;5.30;100.00;101191.03;10492296;28;20039;-74
2023/01/30 00:19:52;;;;;;;36.17;20.98;;;;;;;5.52;100.00;101193.50;10543345;28;20032;-75
2023/01/30 00:24:52;;;;;;;39.88;19.73;;;;;;;5.51;100.00;101167.28;10543741;28;20503;-76
2023/01/30 00:29:52;;;;;;;38.28;20.83;;;;;;;5.53;100.00;101146.06;10474374;28;20047;-73
2023/01/30 00:34:53;;;;;;;32.50;19.90;;;;;;;5.56;100.00;101123.75;10448295;28;20045;-75
2023/01/30 00:39:53;;;;;;;29.67;18.90;;;;;;;5.66;100.00;101129.59;10483639;28;20037;-75
2023/01/30 00:50:13;;;;;;;31.30;16.90;;;;;;;5.69;100.00;101092.84;10509876;28;20041;-75
2023/01/30 00:55:14;;;;;;;28.50;16.45;;;;;;;5.72;100.00;101082.31;10480189;28;20036;-76
2023/01/30 01:00:16;;;;;;;27.52;15.50;;;;;;;5.85;100.00;101093.19;10466665;28;20060;-74
2023/01/30 01:05:17;;;;;;;22.73;15.82;;;;;;;5.78;100.00;101086.91;10472231;28;20052;-77
2023/01/30 01:10:17;;;;;;;26.63;15.57;;;;;;;5.89;100.00;101076.34;10465842;28;20051;-74
2023/01/30 01:15:18;;;;;;;26.45;14.40;;;;;;;5.73;100.00;101061.31;10463478;28;20039;-79
2023/01/30 01:20:20;;;;;;;31.92;16.58;;;;;;;5.78;100.00;101086.91;10482005;28;20433;-80
2023/01/30 01:25:21;;;;;;;24.20;15.68;;;;;;;5.74;100.00;101079.38;10482138;28;20039;-77
2023/01/30 01:30:21;;;;;;;29.42;16.35;;;;;;;5.70;100.00;101073.50;10448681;28;20086;-78
2023/01/30 01:35:22;;;;;;;31.92;15.30;;;;;;;5.64;100.00;101075.22;10482203;28;20040;-78
2023/01/30 01:45:42;;;;;;;29.20;17.95;;;;;;;5.54;100.00;101038.47;10484497;28;20044;-76
2023/01/30 01:50:53;;;;;;;29.30;15.10;;;;;;;5.55;100.00;101026.50;10463039;28;20033;-77
2023/01/30 01:55:55;;;;;;;26.75;14.73;;;;;;;5.40;100.00;101013.13;10482598;28;20046;-75
2023/01/30 02:00:57;;;;;;;18.85;13.13;;;;;;;5.50;100.00;101008.06;10465429;28;20064;-75
2023/01/30 02:05:59;;;;;;;17.42;11.45;;;;;;;5.61;100.00;101048.31;10467958;28;20092;-75
2023/01/30 02:11:08;;;;;;;18.02;11.38;;;;;;;5.57;100.00;101024.41;10472601;28;20584;-77
2023/01/30 02:16:08;;;;;;;22.30;11.77;;;;;;;5.68;100.00;101037.34;10512949;28;20105;-75
2023/01/30 02:21:32;;;;;;;12.73;9.50;;;;;;;5.68;100.00;101037.34;10547534;28;20078;-74
2023/01/30 02:26:57;;;;;;;14.07;9.00;;;;;;;5.70;100.00;101035.25;10531605;28;20052;-73
2023/01/30 02:32:00;;;;;;;13.30;9.35;;;;;;;5.75;100.00;101027.25;10529951;28;20060;-74
2023/01/30 02:37:13;;;;;;;16.58;9.80;;;;;;;5.76;100.00;101019.88;10546217;28;20579;-73
2023/01/30 02:42:26;;;;;;;17.27;11.27;;;;;;;5.83;100.00;101020.69;10511478;28;20048;-74
2023/01/30 02:47:30;;;;;;;23.48;11.32;;;;;;;5.85;100.00;101004.94;10470616;28;20531;-74
2023/01/30 02:52:31;;;;;;;31.85;12.30;;;;;;;5.91;100.00;101000.44;10471530;28;20032;-75
2023/01/30 02:57:31;;;;;;;26.35;14.13;;;;;;;5.94;100.00;100997.28;10487374;28;20043;-75
2023/01/30 03:02:35;;;;;;;24.17;11.60;;;;;;;5.95;100.00;101004.44;10497833;28;20123;-73
2023/01/30 03:07:35;;;;;;;23.15;12.25;;;;;;;6.01;100.00;100988.00;10527380;28;20170;-75
2023/01/30 03:12:37;;;;;;;24.17;11.52;;;;;;;6.03;100.00;100987.78;10510752;28;20549;-73
2023/01/30 03:17:39;;;;;;;36.30;11.60;;;;;;;6.04;100.00;100984.00;10528707;28;20028;-73
2023/01/30 03:22:40;;;;;;;28.55;9.65;;;;;;;6.09;100.00;100991.53;10478986;28;20032;-73
2023/01/30 03:27:40;;;;;;;27.52;10.85;;;;;;;6.11;100.00;100992.97;10494384;28;20549;-73
2023/01/30 03:32:40;;;;;;;19.95;8.63;;;;;;;6.12;100.00;100983.75;10484400;28;20037;-73
2023/01/30 03:37:41;;;;;;;23.75;8.50;;;;;;;6.13;100.00;100969.00;10467792;28;20064;-73
2023/01/30 03:42:41;;;;;;;29.30;7.93;;;;;;;6.03;100.00;100952.25;10469584;28;20032;-73
2023/01/30 03:47:42;;;;;;;23.90;8.75;;;;;;;6.05;100.00;100969.28;10452604;28;20032;-71
2023/01/30 03:52:42;;;;;;;23.30;6.57;;;;;;;5.63;100.00;100919.75;10468842;28;20055;-73
2023/01/30 03:57:43;;;;;;;23.23;7.65;;;;;;;5.90;100.00;100966.84;10501918;28;20041;-69
2023/01/30 04:02:43;;;;;;;14.15;5.65;;;;;;;5.80;100.00;100991.06;10525984;28;21829;-72
2023/01/30 04:07:44;;;;;;;21.58;5.65;;;;;;;5.49;100.00;100940.00;10506621;28;20047;-74
2023/01/30 04:12:45;;;;;;;17.70;4.80;;;;;;;5.55;100.00;100993.75;10491061;28;20047;-74
2023/01/30 04:17:46;;;;;;;16.73;3.92;;;;;;;5.44;100.00;101001.56;10526532;28;20025;-72
2023/01/30 04:22:47;;;;;;;25.05;5.18;;;;;;;5.29;100.00;100954.56;10509016;28;20073;-74
2023/01/30 04:27:47;;;;;;;24.02;5.00;;;;;;;5.17;100.00;100968.09;10505990;28;20059;-74
2023/01/30 04:32:48;;;;;;;20.27;4.65;;;;;;;5.19;100.00;100990.53;10483619;28;20058;-74
2023/01/30 04:37:48;;;;;;;21.08;5.68;;;;;;;5.19;100.00;100989.72;10482466;28;20031;-74
2023/01/30 04:42:49;;;;;;;19.85;5.57;;;;;;;5.18;100.00;100990.75;10467465;28;20035;-74
2023/01/30 04:47:49;;;;;;;10.80;4.65;;;;;;;4.99;100.00;100970.66;10500862;28;20396;-72
2023/01/30 04:52:50;;;;;;;25.40;5.05;;;;;;;4.98;100.00;100985.34;10500518;28;20048;-73
2023/01/30 04:57:50;;;;;;;24.42;5.57;;;;;;;4.92;100.00;100983.47;10463812;28;20101;-72
2023/01/30 05:02:51;;;;;;;19.33;4.53;;;;;;;4.87;100.00;100995.03;10383262;28;20067;-73
2023/01/30 05:07:51;;;;;;;24.63;4.60;;;;;;;4.87;100.00;100996.94;10416238;28;20041;-73
2023/01/30 05:12:52;;;;;;;19.42;4.65;;;;;;;4.98;100.00;101010.78;10400544;28;20060;-72
2023/01/30 05:17:52;;;;;;;32.35;7.03;;;;;;;4.96;100.00;101007.41;10417568;28;20056;-73
2023/01/30 05:22:53;;;;;;;21.42;6.05;;;;;;;4.90;100.00;100997.34;10416651;28;20044;-74
2023/01/30 05:27:53;;;;;;;34.67;6.93;;;;;;;4.90;100.00;101005.53;10416591;28;20041;-74
2023/01/30 05:32:56;;;;;;;20.40;4.60;;;;;;;4.94;100.00;100997.75;10426632;28;20110;-71
2023/01/30 05:37:56;;;;;;;18.88;5.68;;;;;;;4.96;100.00;100996.50;10457352;28;21056;-73
2023/01/30 05:42:57;;;;;;;18.05;6.07;;;;;;;4.97;100.00;101011.81;10457630;28;20049;-70
2023/01/30 05:47:57;;;;;;;25.88;5.20;;;;;;;4.98;100.00;101005.31;10457692;28;20122;-73
2023/01/30 05:52:58;;;;;;;28.17;5.00;;;;;;;5.01;100.00;101004.88;10440086;28;20087;-74
2023/01/30 05:57:58;;;;;;;29.85;5.90;;;;;;;4.93;100.00;101002.38;10484113;28;20435;-73
2023/01/30 06:02:59;;;;;;;26.70;4.85;;;;;;;4.87;100.00;101008.69;10473064;28;20043;-73
2023/01/30 06:07:59;;;;;;;27.50;4.80;;;;;;;4.87;100.00;101002.41;10481099;28;20056;-73
2023/01/30 06:13:00;;;;;;;30.65;5.82;;;;;;;4.92;100.00;100992.53;10516048;28;20032;-74
2023/01/30 06:18:00;;;;;;;31.75;5.20;;;;;;;4.59;100.00;100947.06;10481498;28;20059;-75
2023/01/30 06:23:00;;;;;;;25.15;6.43;;;;;;;4.95;100.00;100989.34;10463721;28;20032;-73
2023/01/30 06:28:01;;;;;;;23.70;5.45;;;;;;;4.89;100.00;100979.28;10479004;28;20048;-74
2023/01/30 06:33:01;;;;;;;25.67;5.50;;;;;;;4.86;100.00;100996.09;10415318;28;20049;-74
2023/01/30 06:38:02;;;;;;;26.15;5.70;;;;;;;4.79;100.00;100989.81;10413800;28;20041;-72
2023/01/30 06:43:03;;;;;;;24.05;5.43;;;;;;;4.75;100.00;100974.94;10382512;28;20114;-74
2023/01/30 06:48:03;;;;;;;25.70;4.60;;;;;;;4.84;100.00;100984.56;10398530;28;20045;-73
2023/01/30 06:53:05;;;;;;;30.17;5.47;;;;;;;4.82;100.00;100979.31;10401356;28;20490;-76
2023/01/30 06:58:10;;;;;;;25.25;4.88;;;;;;;4.74;100.00;100981.44;10404120;28;20033;-72
2023/01/30 07:03:11;;;;;;;29.10;6.32;;;;;;;4.85;100.00;100995.25;10404292;28;20037;-73
2023/01/30 07:08:12;;;;;;;28.67;4.07;;;;;;;4.92;100.00;100989.78;10388451;28;20124;-75
2023/01/30 07:13:13;;;;;;;23.55;3.63;;;;;;;4.91;100.00;100999.03;10422165;28;20061;-73
2023/01/30 07:18:13;;;;;;;16.38;3.97;;;;;;;5.07;100.00;101007.81;10404917;28;20033;-74
2023/01/30 07:23:14;;;;;;;23.33;4.38;;;;;;;5.11;100.00;101025.44;10421089;28;20033;-74
2023/01/30 07:28:14;;;;;;;27.90;6.18;;;;;;;5.13;100.00;101017.88;10420050;28;20048;-75
2023/01/30 07:33:15;;;;;;;26.35;6.55;;;;;;;5.16;100.00;101033.78;10449912;28;20041;-75
2023/01/30 07:38:15;;;;;;;19.90;6.85;;;;;;;5.20;100.00;101018.66;10463188;28;20033;-74
2023/01/30 07:43:16;;;;;;;27.17;6.45;;;;;;;5.19;100.00;101028.75;10462385;28;20040;-73
2023/01/30 07:48:17;;;;;;;32.25;5.43;;;;;;;5.15;100.00;101000.22;10461780;28;20075;-73
2023/01/30 07:53:17;;;;;;;28.10;6.10;;;;;;;5.30;100.00;101002.66;10461592;28;20128;-74
2023/01/30 07:58:18;;;;;;;21.10;5.22;;;;;;;5.35;100.00;101013.75;10460423;28;20032;-74
2023/01/30 08:03:18;;;;;;;41.53;6.30;;;;;;;5.38;100.00;101032.47;10448563;28;20044;-73
2023/01/30 08:08:19;;;;;;;26.80;5.05;;;;;;;5.40;100.00;101013.97;10447705;28;20044;-73
2023/01/30 08:13:19;;;;;;;27.33;6.75;;;;;;;5.45;100.00;101022.34;10426801;28;20040;-73
2023/01/30 08:18:20;;;;;;;32.85;6.00;;;;;;;5.45;100.00;101033.25;10486744;28;20109;-73
2023/01/30 08:23:20;;;;;;;30.20;4.93;;;;;;;5.34;100.00;100994.91;10515703;28;20039;-73
2023/01/30 08:28:21;;;;;;;31.02;5.03;;;;;;;5.55;100.00;101024.59;10500983;28;20041;-74
2023/01/30 08:33:22;;;;;;;34.10;8.10;;;;;;;5.51;100.00;101020.63;10484220;28;20037;-70
2023/01/30 08:38:22;;;;;;;23.90;4.43;;;;;;;5.66;100.00;101029.41;10458941;28;20029;-73
2023/01/30 08:43:23;;;;;;;26.13;5.97;;;;;;;5.69;100.00;100992.63;10423600;28;20033;-74
2023/01/30 08:48:23;;;;;;;27.92;5.82;;;;;;;5.79;100.00;101014.00;10474984;28;20044;-78
2023/01/30 08:53:24;;;;;;;29.33;5.03;;;;;;;5.88;100.00;100987.25;10466300;28;20032;-74
2023/01/30 08:58:24;;;;;;;26.95;5.30;;;;;;;5.83;100.00;101013.34;10495535;28;20048;-74
2023/01/30 09:03:24;;;;;;;26.17;4.25;;;;;;;5.78;100.00;101006.84;10477121;28;20086;-75
2023/01/30 09:08:25;;;;;;;27.55;4.95;;;;;;;5.68;100.00;101001.84;10481470;28;20036;-73
2023/01/30 09:13:26;;;;;;;22.65;4.00;;;;;;;5.97;100.00;101014.09;10460572;28;20076;-72
2023/01/30 09:18:26;;;;;;;32.20;6.97;;;;;;;6.14;100.00;101029.97;10464368;28;20052;-75
2023/01/30 09:23:27;;;;;;;27.58;5.55;;;;;;;6.10;100.00;101015.06;10497293;28;20500;-73
2023/01/30 09:28:27;;;;;;;17.27;3.78;;;;;;;6.07;100.00;101008.97;10498984;28;21081;-72
2023/01/30 09:33:28;;;;;;;27.08;5.10;;;;;;;6.15;100.00;101046.16;10447480;28;20523;-73
2023/01/30 09:38:28;;;;;;;22.00;4.35;;;;;;;5.96;100.00;101028.00;10466526;28;20033;-72
2023/01/30 09:43:35;;;;;;;21.75;4.30;;;;;;;5.98;100.00;101014.94;10499093;28;20037;-73
2023/01/30 09:48:42;;;;;;;30.90;5.57;;;;;;;5.71;100.00;101003.31;10442587;28;20041;-73
2023/01/30 09:54:27;;;;;;;30.35;6.63;;;;;;;5.75;100.00;101035.44;10454014;28;20033;-73
2023/01/30 09:59:31;;;;;;;22.50;5.75;;;;;;;5.78;100.00;101035.00;10438246;28;20075;-72
2023/01/30 10:04:36;;;;;;;22.63;4.90;;;;;;;5.79;100.00;101033.13;10405743;28;20096;-74
2023/01/30 10:09:51;;;;;;;30.35;6.40;;;;;;;6.13;100.00;101037.34;10421160;28;20040;-73
2023/01/30 10:15:07;;;;;;;28.35;5.95;;;;;;;6.28;100.00;101031.53;10419877;28;20041;-73
2023/01/30 10:20:33;;;;;;;32.00;5.88;;;;;;;6.54;100.00;101040.63;10417744;28;20049;-74
2023/01/30 10:26:07;;;;;;;28.85;5.10;;;;;;;6.67;100.00;101029.53;10398671;28;20064;-72
2023/01/30 10:31:17;;;;;;;22.38;4.82;;;;;;;6.80;100.00;101034.03;10484160;28;20096;-73
2023/01/30 10:36:24;;;;;;;23.00;4.68;;;;;;;6.99;100.00;101027.53;10510196;28;20040;-74
2023/01/30 10:41:34;;;;;;;18.80;5.22;;;;;;;7.05;100.00;101043.06;10495198;28;20036;-72
2023/01/30 10:46:52;;;;;;;28.20;5.35;;;;;;;6.19;100.00;101068.44;10509526;28;20535;-75
2023/01/30 10:52:20;;;;;;;14.48;2.22;;;;;;;5.42;100.00;101076.56;10547263;28;20051;-74
2023/01/30 10:57:39;;;;;;;11.77;2.63;;;;;;;5.42;100.00;101087.47;10542446;28;20097;-72
2023/01/30 11:03:09;;;;;;;17.02;2.90;;;;;;;5.56;100.00;101093.72;10518367;28;20566;-73
2023/01/30 11:08:26;;;;;;;7.65;1.42;;;;;;;5.76;100.00;101083.53;10499145;28;20040;-73
2023/01/30 11:13:31;;;;;;;7.78;1.48;;;;;;;5.96;100.00;101090.84;10544098;28;20040;-72
2023/01/30 11:18:31;;;;;;;8.65;1.35;;;;;;;6.06;100.00;101100.25;10509943;28;20032;-73
2023/01/30 11:23:35;;;;;;;10.95;2.00;;;;;;;6.24;100.00;101105.00;10527861;28;20032;-72
2023/01/30 11:28:40;;;;;;;15.65;2.72;;;;;;;6.45;100.00;101092.84;10541969;28;20045;-73
2023/01/30 11:33:40;;;;;;;12.70;2.45;;;;;;;6.64;100.00;101101.97;10541093;28;20115;-72
2023/01/30 11:38:43;;;;;;;8.93;2.95;;;;;;;6.83;100.00;101112.97;10510060;28;20039;-72
2023/01/30 11:43:43;;;;;;;12.15;3.33;;;;;;;6.62;100.00;101139.66;10476479;28;20048;-73
2023/01/30 11:49:03;;;;;;;13.77;2.70;;;;;;;6.49;100.00;101142.50;10509380;28;20040;-72
2023/01/30 11:54:05;;;;;;;17.83;3.72;;;;;;;6.36;100.00;101146.13;10524750;28;20044;-72
2023/01/30 11:59:27;;;;;;;20.90;3.20;;;;;;;6.51;100.00;101144.97;10503480;28;20028;-73
2023/01/30 12:04:27;;;;;;;18.40;3.33;;;;;;;6.44;100.00;101158.72;10525834;28;20066;-70
2023/01/30 12:09:32;;;;;;;22.60;4.63;;;;;;;6.19;100.00;101154.00;10505631;28;20488;-72
2023/01/30 12:14:40;;;;;;;30.70;6.28;;;;;;;6.23;100.00;101157.97;10493272;28;20040;-73
2023/01/30 12:19:59;;;;;;;21.10;4.68;;;;;;;6.58;100.00;101167.69;10509442;28;20127;-71
2023/01/30 12:25:01;;;;;;;18.02;4.13;;;;;;;6.60;100.00;101155.44;10506760;28;20145;-73
2023/01/30 12:30:17;;;;;;;24.35;4.47;;;;;;;6.73;100.00;101181.03;10488534;28;20048;-72
2023/01/30 12:35:18;;;;;;;27.75;5.28;;;;;;;6.92;100.00;101188.25;10504799;28;20036;-72
2023/01/30 12:40:21;;;;;;;21.23;3.88;;;;;;;6.89;100.00;101190.63;10506961;28;20085;-70
2023/01/30 12:45:57;;;;;;;25.77;5.68;;;;;;;7.05;100.00;101201.03;10541639;28;20097;-72
2023/01/30 12:51:17;;;;;;;25.83;5.20;;;;;;;6.96;100.00;101202.34;10515491;28;20066;-71
2023/01/30 12:56:35;;;;;;;18.58;4.82;;;;;;;7.14;100.00;101201.56;10542457;28;20035;-71
2023/01/30 13:01:38;;;;;;;31.25;5.20;;;;;;;7.22;100.00;101212.25;10524426;28;20051;-72
2023/01/30 13:07:01;;;;;;;22.27;3.85;;;;;;;7.36;100.00;101216.53;10524398;28;20040;-73
2023/01/30 13:12:07;;;;;;;23.52;5.68;;;;;;;7.27;100.00;101215.97;10507949;28;20059;-71
2023/01/30 13:17:30;;;;;;;24.10;4.55;;;;;;;7.07;100.00;101238.06;10524776;28;20040;-70
2023/01/30 13:22:39;;;;;;;25.15;5.25;;;;;;;6.93;100.00;101231.00;10507529;28;20043;-70
2023/01/30 13:27:39;;;;;;;26.25;6.10;;;;;;;6.89;100.00;101267.25;10507192;28;20041;-72
2023/01/30 13:32:41;;;;;;;26.92;4.22;;;;;;;6.70;100.00;101241.66;10464219;28;20060;-73
2023/01/30 13:37:43;;;;;;;26.20;5.10;;;;;;;6.87;100.00;101281.16;10500003;28;20047;-73
2023/01/30 13:43:06;;;;;;;18.70;4.78;;;;;;;6.88;100.00;101301.97;10482518;28;20090;-70
2023/01/30 13:48:18;;;;;;;22.50;5.25;;;;;;;6.91;100.00;101276.91;10482346;28;20104;-73
2023/01/30 13:53:29;;;;;;;21.73;4.22;;;;;;;7.15;100.00;101285.38;10506113;28;20033;-72
2023/01/30 13:58:36;;;;;;;25.65;4.78;;;;;;;7.28;100.00;101299.00;10485850;28;20119;-71
2023/01/30 14:03:36;;;;;;;22.40;5.50;;;;;;;7.19;100.00;101301.16;10506360;28;20041;-71
2023/01/30 14:08:47;;;;;;;25.80;4.63;;;;;;;7.34;100.00;101330.09;10473918;28;20040;-73
2023/01/30 14:13:51;;;;;;;29.35;6.90;;;;;;;7.31;100.00;101349.75;10489832;28;20033;-70
2023/01/30 14:18:51;;;;;;;33.70;6.60;;;;;;;7.22;100.00;101354.66;10473229;28;20041;-70
2023/01/30 14:23:59;;;;;;;30.90;6.50;;;;;;;7.12;100.00;101381.66;10455981;28;20033;-72
2023/01/30 14:29:00;;;;;;;52.72;10.27;;;;;;;6.91;100.00;101415.69;10489169;28;20044;-70
2023/01/30 14:34:00;;;;;;;31.13;6.35;;;;;;;7.11;100.00;101401.88;10497123;28;20386;-72
2023/01/30 14:39:37;;;;;;;44.00;7.80;;;;;;;6.94;100.00;101407.84;10531000;28;20090;-72
2023/01/30 14:44:56;;;;;;;38.83;6.00;;;;;;;6.84;100.00;101415.69;10542874;28;20052;-71
2023/01/30 14:49:57;;;;;;;30.30;6.10;;;;;;;6.87;100.00;101448.09;10507571;28;20040;-71
2023/01/30 14:54:58;;;;;;;30.05;6.82;;;;;;;6.95;100.00;101461.56;10509202;28;20052;-71
2023/01/30 15:00:05;;;;;;;32.38;6.43;;;;;;;6.94;100.00;101476.28;10521976;28;20032;-72
2023/01/30 15:05:12;;;;;;;30.85;7.32;;;;;;;6.77;100.00;101483.28;10528008;28;20066;-71
2023/01/30 15:10:30;;;;;;;29.17;5.10;;;;;;;6.73;100.00;101492.97;10510070;28;20036;-71
2023/01/30 15:15:40;;;;;;;34.72;7.05;;;;;;;6.86;100.00;101493.81;10526589;28;20105;-71
2023/01/30 15:21:03;;;;;;;37.60;7.15;;;;;;;6.72;100.00;101535.06;10527319;28;20035;-70
2023/01/30 15:26:13;;;;;;;37.50;6.43;;;;;;;6.30;100.00;101553.59;10527105;28;20054;-69
2023/01/30 15:31:14;;;;;;;24.13;5.03;;;;;;;5.98;100.00;101558.84;10509734;28;20036;-72
2023/01/30 15:36:19;;;;;;;18.30;3.90;;;;;;;5.72;100.00;101557.66;10526180;28;20051;-71
2023/01/30 15:41:20;;;;;;;32.85;6.85;;;;;;;5.56;100.00;101575.28;10526013;28;20038;-71
2023/01/30 15:46:43;;;;;;;22.58;4.35;;;;;;;5.41;100.00;101586.31;10524793;28;20040;-71
2023/01/30 15:51:44;;;;;;;40.22;5.30;;;;;;;5.27;100.00;101581.84;10532379;28;20028;-71
2023/01/30 15:56:45;;;;;;;16.30;3.88;;;;;;;5.12;100.00;101589.31;10531091;28;20039;-74
2023/01/30 16:01:46;;;;;;;29.55;5.07;;;;;;;4.99;100.00;101607.31;10514489;28;20043;-71
2023/01/30 16:06:46;;;;;;;19.77;4.88;;;;;;;4.92;100.00;101621.94;10534316;28;20227;-72
2023/01/30 16:11:46;;;;;;;23.48;5.25;;;;;;;4.81;100.00;101642.41;10543557;28;20036;-71
2023/01/30 16:16:56;;;;;;;25.73;6.75;;;;;;;4.83;100.00;101643.91;10543628;28;20079;-71
2023/01/30 16:22:02;;;;;;;31.63;4.75;;;;;;;4.83;100.00;101659.44;10544293;28;20039;-73
2023/01/30 16:27:06;;;;;;;28.57;6.33;;;;;;;4.83;100.00;101668.47;10526298;28;20454;-72
2023/01/30 16:32:13;;;;;;;23.95;6.18;;;;;;;4.79;100.00;101666.31;10490886;28;20046;-72
2023/01/30 16:37:19;;;;;;;32.50;5.95;;;;;;;4.84;100.00;101683.81;10466646;28;20036;-72
2023/01/30 16:42:23;;;;;;;32.80;6.40;;;;;;;4.87;100.00;101685.28;10491676;28;20028;-71
2023/01/30 16:47:27;;;;;;;22.63;4.53;;;;;;;4.87;100.00;101701.66;10484960;28;20052;-71
2023/01/30 16:52:43;;;;;;;29.10;6.38;;;;;;;4.92;100.00;101715.56;10483856;28;20048;-72
2023/01/30 16:57:50;;;;;;;24.70;4.80;;;;;;;4.73;100.00;101716.22;10482477;28;20040;-71
2023/01/30 17:02:53;;;;;;;25.38;5.57;;;;;;;4.75;100.00;101735.97;10448653;28;20436;-71
2023/01/30 17:07:54;;;;;;;24.45;6.75;;;;;;;4.84;100.00;101740.25;10482609;28;20426;-72
2023/01/30 17:12:55;;;;;;;26.00;6.72;;;;;;;4.83;100.00;101754.94;10457856;28;20036;-71
2023/01/30 17:17:55;;;;;;;35.38;6.60;;;;;;;4.76;100.00;101756.75;10507118;28;20055;-71
2023/01/30 17:22:56;;;;;;;30.45;5.72;;;;;;;4.61;100.00;101752.19;10489863;28;20607;-72
2023/01/30 17:27:57;;;;;;;26.95;6.68;;;;;;;4.62;100.00;101759.31;10505948;28;20067;-72
2023/01/30 17:32:58;;;;;;;29.50;6.32;;;;;;;4.68;100.00;101771.34;10473728;28;20590;-71
2023/01/30 17:37:58;;;;;;;29.60;5.00;;;;;;;4.70;100.00;101790.25;10456611;28;20044;-71
2023/01/30 17:42:59;;;;;;;29.77;5.45;;;;;;;4.65;100.00;101778.06;10457473;28;20041;-71
2023/01/30 17:47:59;;;;;;;26.52;5.15;;;;;;;4.69;100.00;101794.84;10440421;28;20045;-71
2023/01/30 17:53:00;;;;;;;38.85;7.72;;;;;;;4.74;100.00;101794.31;10440316;28;20033;-72
2023/01/30 17:58:00;;;;;;;25.00;4.45;;;;;;;4.82;100.00;101797.75;10456446;28;20052;-72
2023/01/30 18:03:01;;;;;;;22.98;4.43;;;;;;;4.77;100.00;101794.72;10456703;28;20037;-72
2023/01/30 18:08:01;;;;;;;21.35;4.82;;;;;;;4.88;100.00;101809.78;10456570;28;20047;-72
2023/01/30 18:13:02;;;;;;;27.25;5.35;;;;;;;4.80;100.00;101815.34;10456855;28;20075;-72
2023/01/30 18:18:02;;;;;;;15.45;4.07;;;;;;;4.65;100.00;101816.25;10456394;28;20048;-70
2023/01/30 18:23:02;;;;;;;27.75;5.88;;;;;;;4.69;100.00;101829.47;10439311;28;20075;-71
2023/01/30 18:28:05;;;;;;;36.53;6.50;;;;;;;4.60;100.00;101837.78;10438521;28;20056;-72
2023/01/30 18:33:06;;;;;;;30.70;5.88;;;;;;;4.53;100.00;101825.94;10481899;28;20105;-72
2023/01/30 18:38:06;;;;;;;32.22;5.85;;;;;;;4.55;100.00;101853.88;10497072;28;20048;-72
2023/01/30 18:43:07;;;;;;;35.67;4.93;;;;;;;4.44;100.00;101860.66;10463591;28;20043;-71
2023/01/30 18:48:07;;;;;;;35.53;6.85;;;;;;;4.42;100.00;101853.69;10498234;28;20071;-70
2023/01/30 18:53:08;;;;;;;27.50;4.60;;;;;;;4.45;100.00;101861.50;10502207;28;20048;-71
2023/01/30 18:58:08;;;;;;;38.50;5.60;;;;;;;4.39;100.00;101874.00;10502866;28;20041;-72
2023/01/30 19:03:09;;;;;;;31.27;6.00;;;;;;;4.41;100.00;101868.38;10458037;28;20075;-70
2023/01/30 19:08:09;;;;;;;16.95;4.95;;;;;;;4.38;100.00;101875.06;10449930;28;20052;-70
2023/01/30 19:18:30;;;;;;;27.30;5.10;;;;;;;4.25;100.00;101883.88;10502587;28;20100;-71
2023/01/30 19:23:32;;;;;;;30.90;6.75;;;;;;;4.24;100.00;101882.19;10502632;28;20041;-71
2023/01/30 19:28:33;;;;;;;46.47;9.80;;;;;;;4.42;100.00;101895.47;10485979;28;20048;-71
2023/01/30 19:33:34;;;;;;;21.73;5.97;;;;;;;4.44;100.00;101912.47;10537230;28;20036;-71
2023/01/30 19:38:34;;;;;;;21.75;5.20;;;;;;;4.53;100.00;101917.84;10488061;28;20039;-72
2023/01/30 19:43:36;;;;;;;24.45;4.63;;;;;;;4.56;100.00;101912.81;10482266;28;20028;-71
2023/01/30 19:48:40;;;;;;;23.10;4.15;;;;;;;4.65;100.00;101924.47;10526553;28;20051;-72
2023/01/30 19:53:42;;;;;;;22.20;4.93;;;;;;;4.60;100.00;101930.50;10492383;28;20043;-71
2023/01/30 19:58:42;;;;;;;19.27;4.10;;;;;;;4.46;100.00;101939.53;10523554;28;20467;-72
2023/01/30 20:03:43;;;;;;;25.17;5.60;;;;;;;4.39;100.00;101944.06;10525455;28;20059;-72
2023/01/30 20:08:44;;;;;;;27.02;4.72;;;;;;;4.49;100.00;101961.00;10493629;28;20053;-72
2023/01/30 20:13:45;;;;;;;21.88;4.13;;;;;;;4.43;100.00;101959.00;10524615;28;20036;-72
2023/01/30 20:18:47;;;;;;;23.73;4.38;;;;;;;4.33;100.00;101945.66;10487072;28;20434;-72
2023/01/30 20:23:47;;;;;;;15.48;4.60;;;;;;;4.59;100.00;101977.94;10508796;28;20036;-71
2023/01/30 20:28:48;;;;;;;20.42;3.70;;;;;;;4.64;100.00;101974.63;10507955;28;20044;-72
2023/01/30 20:33:49;;;;;;;22.08;4.63;;;;;;;4.36;100.00;101952.59;10525676;28;20036;-73
2023/01/30 20:38:49;;;;;;;13.82;2.97;;;;;;;4.08;100.00;101941.50;10477236;28;20040;-71
2023/01/30 20:43:51;;;;;;;15.38;4.75;;;;;;;4.16;100.00;101977.69;10505148;28;20384;-71
2023/01/30 20:48:52;;;;;;;21.52;5.20;;;;;;;4.08;100.00;101987.81;10505405;28;20055;-73
2023/01/30 20:53:54;;;;;;;25.05;4.43;;;;;;;4.00;100.00;101966.94;10504963;28;20032;-72
2023/01/30 20:58:55;;;;;;;20.90;7.45;;;;;;;3.92;100.00;101992.34;10495761;28;20044;-71
2023/01/30 21:03:55;;;;;;;20.20;4.40;;;;;;;3.92;100.00;101992.34;10502664;28;20040;-70
2023/01/30 21:08:55;;;;;;;23.38;4.40;;;;;;;3.84;100.00;101995.16;10522479;28;20071;-69
2023/01/30 21:13:56;;;;;;;20.08;4.80;;;;;;;3.90;100.00;102004.47;10488130;28;20065;-72
2023/01/30 21:18:58;;;;;;;23.02;4.85;;;;;;;4.01;100.00;102001.31;10488744;28;20044;-72
2023/01/30 21:24:01;;;;;;;21.48;4.43;;;;;;;3.90;100.00;101982.69;10500810;28;20054;-72
2023/01/30 21:29:02;;;;;;;23.38;6.10;;;;;;;3.86;100.00;101997.69;10503958;28;20044;-72
2023/01/30 21:34:03;;;;;;;24.02;5.32;;;;;;;3.89;100.00;101979.13;10493030;28;20075;-72
2023/01/30 21:44:36;;;;;;;20.38;4.68;;;;;;;3.87;100.00;101981.16;10539497;28;20524;-73
2023/01/30 21:49:39;;;;;;;24.58;5.03;;;;;;;3.71;100.00;101973.13;10522403;28;20066;-72
2023/01/30 21:54:39;;;;;;;27.60;4.22;;;;;;;3.66;100.00;101965.50;10478490;28;20331;-73
2023/01/30 21:59:40;;;;;;;21.35;4.68;;;;;;;3.63;100.00;101993.09;10489515;28;20085;-72
2023/01/30 22:04:41;;;;;;;16.52;4.00;;;;;;;3.55;100.00;101982.25;10505498;28;20043;-72
2023/01/30 22:09:41;;;;;;;28.90;5.40;;;;;;;3.59;100.00;102006.22;10505523;28;20032;-72
2023/01/30 22:14:42;;;;;;;30.60;6.05;;;;;;;3.61;100.00;102006.03;10539569;28;20040;-73
2023/01/30 22:19:42;;;;;;;30.70;6.38;;;;;;;3.67;100.00;102004.47;10499901;28;20032;-72
2023/01/30 22:24:43;;;;;;;22.58;4.30;;;;;;;3.69;100.00;102007.88;10495166;28;20033;-72
2023/01/30 22:29:43;;;;;;;27.65;5.22;;;;;;;3.71;100.00;102006.66;10530643;28;20437;-72
2023/01/30 22:34:43;;;;;;;33.72;4.13;;;;;;;3.70;100.00;102021.31;10513039;28;20040;-72
2023/01/30 22:39:44;;;;;;;25.65;5.03;;;;;;;3.52;100.00;101947.25;10529725;28;20055;-72
2023/01/30 22:44:44;;;;;;;33.03;5.78;;;;;;;4.00;100.00;102015.97;10528931;28;20089;-73
2023/01/30 22:49:45;;;;;;;24.25;4.45;;;;;;;4.11;100.00;102017.41;10528524;28;20036;-72
2023/01/30 22:54:45;;;;;;;30.13;4.68;;;;;;;4.14;100.00;102061.50;10500388;28;20062;-72
2023/01/30 22:59:46;;;;;;;21.83;5.95;;;;;;;4.17;100.00;102033.88;10513478;28;20036;-72
2023/01/30 23:04:49;;;;;;;24.17;4.00;;;;;;;4.02;100.00;102013.91;10512476;28;20028;-72
2023/01/30 23:09:49;;;;;;;22.13;4.50;;;;;;;4.14;100.00;102034.25;10528539;28;20055;-72
2023/01/30 23:14:50;;;;;;;30.88;5.05;;;;;;;3.99;100.00;102025.16;10470673;28;20036;-71
2023/01/30 23:19:50;;;;;;;28.20;6.18;;;;;;;3.99;100.00;102030.63;10520830;28;20063;-72
2023/01/30 23:24:51;;;;;;;24.52;5.38;;;;;;;4.02;100.00;102035.72;10510294;28;20088;-73